Airfield :
LOGIN :

Register | Disclaimer

   EN    FR    IT 

 










Legend :    VFR   Marginal VFR   IFR   Intensive IFR   Very Intensive IFR
Visi :
Ceiling :
>= 8 km
>= 3000ft
5 to 8 km
1000 to 3000 ft
1500m to 5 km
500 to 1000 ft
800 to 1500m
200 to 500 ft
< 800m
< 200 ft
Symbols :   Thunderstorms  Fog  Heavy snow  Heavy precipitations  Wind > 20 kt
SIGMETs :     Misc.  Thunderstorms  Icing  Turbulence  Mountain Waves  Volcanic Ashes






- Airport Elevation : 235 ft
- IATA code : BZG


EPBY - Bydgoszcz

CURRENT METAR :
  • 291200Z 32006KT 240V010 CAVOK 24/12 Q1017

EXPIRED METARs :
  • 291130Z 26005KT 210V320 9999 SCT063TCU 23/11 Q1018
  • 291100Z 32003KT 260V050 CAVOK 23/10 Q1018
  • 291030Z VRB04KT CAVOK 23/11 Q1018
  • 291000Z 31006KT 230V350 CAVOK 23/12 Q1018
  • 290930Z 33007KT 290V050 CAVOK 22/11 Q1018

TAF TAF EPBY
Valid from the 29 at 12:00 until the 30 at 12:00 UTC


291130Z 2912/3012 33006KT CAVOK
PROB30
TEMPO 2912/2917 SHRA BKN040CB
BECMG 2914/2917 05010KT
TEMPO 3000/3012 07015G30KT 4000 TSRA BKN025CB



MET'MAP, your aeronautical weather chart ! - Copyright ORBIFLY December 2007 - Disclaimer

ORBIFLY MET'MAP TEAM :

Programming & Development : Alexandra Zaïnal
Original concept : Baudouin d'Aumeries
Technical & hardware support : Manuel Goepfert
Assistance : Marc-Olivier Méhu




SOURCES & CREDITS :

   NOAA